Time;durP1;ratioP1;P1;durP2;ratioP2;P2;SDS_P1;SDS_P2;PMS_P1;PMS_P2;Temp;Humidity;BMP_temperature;BMP_pressure;BME280_temperature;BME280_humidity;BME280_pressure;Samples;Min_cycle;Max_cycle;Signal;HPM_P1;HPM_P2
2022/08/10 00:01:28;;;;;;;15.20;2.55;;;;;;;36.85;30.29;100803.56;5089727;28;20047;-62
2022/08/10 00:03:56;;;;;;;20.85;2.97;;;;;;;36.90;30.12;100783.97;5077609;28;20390;-63
2022/08/10 00:06:22;;;;;;;21.95;2.97;;;;;;;37.11;30.67;100790.31;5086561;28;20493;-59
2022/08/10 00:08:49;;;;;;;31.45;3.10;;;;;;;36.73;32.71;100801.41;5084986;28;20028;-62
2022/08/10 00:11:17;;;;;;;21.70;3.17;;;;;;;36.45;33.64;100815.03;5078640;28;20024;-62
2022/08/10 00:13:45;;;;;;;20.02;2.92;;;;;;;36.50;35.52;100859.00;5090194;28;20449;-62
2022/08/10 00:16:12;;;;;;;37.05;6.38;;;;;;;35.75;35.74;100880.38;5079479;28;20080;-60
2022/08/10 00:18:40;;;;;;;25.55;4.10;;;;;;;35.25;35.97;100871.97;5083190;28;20040;-62
2022/08/10 00:21:08;;;;;;;34.75;5.07;;;;;;;35.42;36.04;100870.91;5087289;28;20553;-60
2022/08/10 00:23:37;;;;;;;24.25;3.42;;;;;;;35.38;36.20;100882.28;5088056;28;20114;-61
2022/08/10 00:26:05;;;;;;;18.27;3.35;;;;;;;34.49;38.34;100909.06;5093322;28;20024;-63
2022/08/10 00:28:32;;;;;;;9.02;2.80;;;;;;;34.21;39.37;100887.63;5083887;28;20391;-62
2022/08/10 00:30:59;;;;;;;13.35;2.80;;;;;;;34.15;38.96;100882.88;5080315;28;20090;-62
2022/08/10 00:33:26;;;;;;;8.65;2.38;;;;;;;34.26;38.77;100883.53;5111499;28;20031;-63
2022/08/10 00:35:53;;;;;;;21.40;3.22;;;;;;;34.38;38.46;100876.56;5093136;28;20023;-63
2022/08/10 00:38:19;;;;;;;11.48;2.90;;;;;;;34.18;39.00;100874.38;5085153;28;20089;-63
2022/08/10 00:40:46;;;;;;;7.80;2.92;;;;;;;34.68;37.96;100858.78;5086112;28;20494;-61
2022/08/10 00:43:13;;;;;;;17.75;2.78;;;;;;;34.75;36.89;100847.38;5093590;28;20520;-62
2022/08/10 00:45:40;;;;;;;12.07;3.17;;;;;;;34.72;36.29;100843.38;5091653;28;20019;-59
2022/08/10 00:48:06;;;;;;;8.20;2.35;;;;;;;34.50;36.81;100830.81;5089155;28;20032;-62
2022/08/10 00:50:33;;;;;;;12.68;2.60;;;;;;;34.78;36.84;100816.25;5099678;28;20024;-62
2022/08/10 00:53:01;;;;;;;34.35;4.28;;;;;;;35.21;36.38;100806.25;5091575;28;20030;-62
2022/08/10 00:55:28;;;;;;;12.55;3.00;;;;;;;35.12;34.64;100799.13;5091531;28;20044;-62
2022/08/10 00:57:55;;;;;;;60.75;4.75;;;;;;;35.32;34.09;100807.63;5089463;28;20035;-61
2022/08/10 01:00:23;;;;;;;10.40;3.03;;;;;;;35.27;34.04;100805.31;5093811;28;20104;-61
2022/08/10 01:02:50;;;;;;;8.07;2.47;;;;;;;35.31;33.20;100805.25;5091859;28;20028;-62
2022/08/10 01:05:19;;;;;;;14.25;2.00;;;;;;;35.52;33.14;100804.84;5091600;28;20414;-63
2022/08/10 01:08:04;;;;;;;14.50;2.58;;;;;;;35.39;33.83;100810.38;5091084;28;20039;-60
2022/08/10 01:11:04;;;;;;;7.53;1.90;;;;;;;35.58;32.74;100803.13;5091370;28;20035;-60
2022/08/10 01:14:29;;;;;;;11.43;2.30;;;;;;;35.84;32.35;100792.91;5090417;28;20032;-60
2022/08/10 01:16:59;;;;;;;10.80;2.33;;;;;;;35.97;31.71;100790.22;5025266;28;20185;-64
2022/08/10 01:19:26;;;;;;;10.15;2.80;;;;;;;36.03;30.47;100783.59;5090708;28;20085;-62
2022/08/10 01:22:29;;;;;;;9.60;3.17;;;;;;;36.23;29.49;100783.56;5091447;28;20043;-61
2022/08/10 01:25:37;;;;;;;9.18;4.43;;;;;;;36.37;29.42;100781.66;5080047;28;20154;-60
2022/08/10 01:28:22;;;;;;;6.68;2.40;;;;;;;36.52;28.12;100792.19;5090359;28;20027;-65
2022/08/10 01:30:53;;;;;;;6.72;2.05;;;;;;;36.52;28.50;100788.56;5098589;28;20064;-62
2022/08/10 01:33:31;;;;;;;9.02;1.70;;;;;;;36.44;28.33;100784.31;5095852;28;20028;-59
2022/08/10 01:36:12;;;;;;;5.90;1.38;;;;;;;36.42;28.56;100793.25;5085321;28;20024;-61
2022/08/10 01:38:44;;;;;;;5.45;1.67;;;;;;;36.44;27.55;100798.47;5091330;28;20399;-63
2022/08/10 01:41:28;;;;;;;6.38;1.70;;;;;;;36.44;27.37;100806.94;5098393;28;20547;-61
2022/08/10 01:44:05;;;;;;;7.53;3.40;;;;;;;36.35;28.09;100806.78;5090863;28;20482;-62
2022/08/10 01:46:37;;;;;;;8.23;2.42;;;;;;;36.31;28.16;100813.31;5091891;28;20478;-60
2022/08/10 01:49:08;;;;;;;8.98;2.50;;;;;;;36.27;28.84;100818.25;5076344;28;20044;-62
2022/08/10 01:51:54;;;;;;;11.68;2.42;;;;;;;36.24;28.60;100832.47;5086426;28;20032;-62
2022/08/10 01:54:26;;;;;;;8.15;1.60;;;;;;;36.29;27.85;100832.75;5088298;28;20501;-62
2022/08/10 01:56:56;;;;;;;3.70;1.70;;;;;;;36.34;27.92;100842.00;5088631;28;20403;-62
2022/08/10 01:59:35;;;;;;;7.85;1.60;;;;;;;36.25;27.71;100849.00;5074677;28;20037;-62
2022/08/10 02:02:06;;;;;;;9.40;2.00;;;;;;;36.20;27.92;100841.03;5087217;28;20040;-62
2022/08/10 02:04:37;;;;;;;6.30;2.30;;;;;;;36.12;27.73;100853.75;5080613;28;20032;-63
2022/08/10 02:07:05;;;;;;;4.68;2.20;;;;;;;36.01;28.09;100851.16;5090935;28;20039;-62
2022/08/10 02:09:35;;;;;;;11.00;2.85;;;;;;;35.93;29.44;100848.91;5090672;28;20490;-62
2022/08/10 02:12:08;;;;;;;7.75;2.70;;;;;;;35.81;28.97;100861.66;5075537;28;20036;-62
2022/08/10 02:14:57;;;;;;;26.88;3.78;;;;;;;35.77;29.40;100862.97;5081307;28;20040;-61
2022/08/10 02:17:45;;;;;;;14.00;3.53;;;;;;;35.69;29.49;100851.78;5088149;28;20049;-61
2022/08/10 02:20:21;;;;;;;19.20;3.95;;;;;;;35.64;30.78;100860.78;5090807;28;20034;-62
2022/08/10 02:22:58;;;;;;;19.92;4.20;;;;;;;35.58;31.58;100873.81;5091833;28;20028;-61
2022/08/10 02:25:27;;;;;;;18.50;4.10;;;;;;;35.37;32.09;100874.19;5094177;28;20032;-61
2022/08/10 02:27:54;;;;;;;19.95;4.30;;;;;;;35.14;32.13;100870.13;5079029;28;20024;-61
2022/08/10 02:30:22;;;;;;;22.88;4.43;;;;;;;34.95;34.96;100873.69;5095645;28;20603;-62
2022/08/10 02:32:49;;;;;;;17.77;3.80;;;;;;;34.75;32.69;100873.56;5084258;28;20032;-63
2022/08/10 02:35:19;;;;;;;24.50;3.78;;;;;;;34.64;32.72;100875.75;5090557;28;20063;-61
2022/08/10 02:37:49;;;;;;;18.70;3.45;;;;;;;34.75;32.86;100875.59;5078722;28;20020;-62
2022/08/10 02:40:16;;;;;;;13.55;3.33;;;;;;;34.57;31.92;100864.56;5088831;28;20502;-62
2022/08/10 02:42:57;;;;;;;11.40;3.83;;;;;;;34.81;31.51;100885.19;5085418;28;20367;-61
2022/08/10 02:45:51;;;;;;;27.52;4.05;;;;;;;34.94;32.43;100886.22;5079254;28;20075;-61
2022/08/10 02:48:23;;;;;;;22.35;4.47;;;;;;;34.99;32.32;100891.38;5082163;28;20123;-62
2022/08/10 02:51:00;;;;;;;18.48;4.13;;;;;;;35.02;33.20;100895.38;5110973;28;20032;-62
2022/08/10 02:53:48;;;;;;;19.17;4.78;;;;;;;34.82;34.69;100898.06;5095088;28;20039;-62
2022/08/10 02:56:25;;;;;;;22.50;5.05;;;;;;;34.67;34.07;100903.16;5081816;28;20051;-61
2022/08/10 02:58:58;;;;;;;14.65;3.65;;;;;;;34.67;33.67;100896.72;5094997;28;20510;-62
2022/08/10 03:01:32;;;;;;;15.00;3.90;;;;;;;34.73;33.38;100895.00;5078729;28;20127;-61
2022/08/10 03:04:04;;;;;;;14.25;3.90;;;;;;;34.68;34.19;100906.78;5079452;28;20097;-61
2022/08/10 03:06:36;;;;;;;16.80;4.30;;;;;;;34.73;33.46;100909.91;5094909;28;20039;-60
2022/08/10 03:09:07;;;;;;;24.30;4.97;;;;;;;34.70;33.75;100901.50;5081756;28;20039;-61
2022/08/10 03:11:37;;;;;;;20.98;4.50;;;;;;;34.91;33.29;100912.50;5091408;28;20032;-61
2022/08/10 03:14:07;;;;;;;20.52;4.60;;;;;;;35.06;33.30;100902.56;5079546;28;20035;-62
2022/08/10 03:16:35;;;;;;;26.38;4.72;;;;;;;34.92;32.47;100922.56;5085555;28;20048;-61
2022/08/10 03:19:05;;;;;;;17.15;5.03;;;;;;;34.92;32.75;100916.13;5086678;28;20032;-61
2022/08/10 03:21:33;;;;;;;28.30;4.63;;;;;;;34.90;32.44;100927.06;5078059;28;20036;-61
2022/08/10 03:24:02;;;;;;;21.23;5.30;;;;;;;34.90;32.79;100930.66;5094495;28;20020;-61
2022/08/10 03:26:32;;;;;;;27.15;5.60;;;;;;;34.77;32.64;100938.09;5094560;28;20032;-61
2022/08/10 03:29:02;;;;;;;22.17;5.20;;;;;;;34.71;32.82;100934.16;5081794;28;20048;-61
2022/08/10 03:31:30;;;;;;;18.45;5.10;;;;;;;34.58;33.49;100939.56;5091154;28;20024;-62
2022/08/10 03:33:59;;;;;;;16.42;5.22;;;;;;;34.59;33.42;100943.19;5078281;28;20497;-60
2022/08/10 03:36:26;;;;;;;19.67;5.35;;;;;;;34.52;33.21;100942.09;5085038;28;20029;-61
2022/08/10 03:38:53;;;;;;;22.42;5.18;;;;;;;34.41;32.86;100949.88;5085783;28;20085;-61
2022/08/10 03:41:29;;;;;;;21.17;4.90;;;;;;;34.54;33.46;100953.75;5078901;28;20028;-61
2022/08/10 03:43:59;;;;;;;21.73;4.90;;;;;;;34.59;32.86;100957.31;5078139;28;20032;-62
2022/08/10 03:46:28;;;;;;;18.35;4.45;;;;;;;34.64;32.37;100959.66;5094143;28;20031;-61
2022/08/10 03:48:57;;;;;;;17.95;5.15;;;;;;;34.46;33.17;100963.50;5081798;28;20025;-61
2022/08/10 03:51:25;;;;;;;13.73;4.88;;;;;;;34.40;32.66;100968.03;5090132;28;20027;-61
2022/08/10 03:53:53;;;;;;;23.20;5.75;;;;;;;34.31;33.23;100959.25;5088432;28;20032;-62
2022/08/10 03:56:20;;;;;;;19.33;4.97;;;;;;;34.28;33.31;100962.09;5094141;28;20019;-61
2022/08/10 03:58:47;;;;;;;19.10;5.50;;;;;;;34.17;33.80;100970.72;5082851;28;20039;-61
2022/08/10 04:01:15;;;;;;;16.05;4.95;;;;;;;34.33;32.78;100976.56;5088410;28;20044;-60
2022/08/10 04:03:42;;;;;;;14.50;4.70;;;;;;;34.39;32.67;100977.72;5077051;28;20058;-61
2022/08/10 04:06:10;;;;;;;13.77;4.82;;;;;;;34.38;33.16;100978.94;5088063;28;20028;-61
2022/08/10 04:08:43;;;;;;;19.63;4.43;;;;;;;34.49;32.43;100982.44;5085380;28;20032;-61
2022/08/10 04:11:11;;;;;;;24.10;5.03;;;;;;;34.44;33.07;100977.25;5093800;28;20060;-60
2022/08/10 04:13:38;;;;;;;18.83;5.25;;;;;;;34.53;32.53;100985.22;5076824;28;20029;-61
2022/08/10 04:16:05;;;;;;;31.50;6.45;;;;;;;34.50;32.37;100978.41;5088513;28;20032;-61
2022/08/10 04:18:33;;;;;;;24.85;5.97;;;;;;;34.43;32.40;100972.81;5081867;28;20548;-61
2022/08/10 04:21:06;;;;;;;23.08;6.47;;;;;;;34.30;33.22;100979.44;5101096;28;20071;-61
2022/08/10 04:23:35;;;;;;;29.48;7.20;;;;;;;34.20;33.33;100986.81;5093030;28;20074;-60
2022/08/10 04:26:03;;;;;;;28.30;6.50;;;;;;;34.10;33.32;100988.50;5093584;28;20555;-60
2022/08/10 04:28:32;;;;;;;20.60;4.70;;;;;;;34.30;32.64;100985.88;5084346;28;20056;-61
2022/08/10 04:31:03;;;;;;;18.65;5.10;;;;;;;34.26;33.08;100990.75;5085857;28;20043;-60
2022/08/10 04:33:32;;;;;;;28.17;5.35;;;;;;;34.14;33.22;100994.94;5112774;28;20023;-61
2022/08/10 04:36:02;;;;;;;23.23;5.85;;;;;;;34.13;34.02;100996.16;5093370;28;20027;-61
2022/08/10 04:38:31;;;;;;;30.85;6.50;;;;;;;34.06;33.55;100996.22;5083334;28;20032;-60
2022/08/10 04:40:59;;;;;;;21.80;6.53;;;;;;;34.02;33.34;100994.66;5085455;28;20078;-60
2022/08/10 04:43:26;;;;;;;23.05;5.57;;;;;;;34.03;33.47;100999.06;5092642;28;20059;-60
2022/08/10 04:45:52;;;;;;;23.25;6.78;;;;;;;34.10;33.36;100996.16;5076314;28;20354;-61
2022/08/10 04:48:23;;;;;;;22.65;6.47;;;;;;;34.29;32.74;100994.75;5085430;28;20025;-61
2022/08/10 04:50:50;;;;;;;20.75;5.97;;;;;;;34.23;32.83;101005.69;5084248;28;20024;-61
2022/08/10 04:53:17;;;;;;;16.67;5.45;;;;;;;34.13;32.82;101004.63;5087526;28;20031;-60
2022/08/10 04:55:44;;;;;;;27.80;6.70;;;;;;;33.93;33.62;101004.44;5093181;28;20436;-61
2022/08/10 04:58:11;;;;;;;25.48;6.68;;;;;;;33.75;34.33;101006.56;5086751;28;20025;-61
2022/08/10 05:00:37;;;;;;;33.35;6.95;;;;;;;33.68;35.10;100998.19;5082073;28;20036;-60
2022/08/10 05:03:04;;;;;;;28.70;7.95;;;;;;;33.72;35.46;101015.84;5079212;28;20479;-60
2022/08/10 05:05:31;;;;;;;27.77;6.63;;;;;;;33.63;35.55;101004.28;5089217;28;20036;-61
2022/08/10 05:07:57;;;;;;;23.13;6.03;;;;;;;33.60;35.38;101010.75;5076576;28;20028;-61
2022/08/10 05:10:24;;;;;;;10.82;4.93;;;;;;;33.56;35.90;101004.31;5085334;28;20417;-61
2022/08/10 05:12:51;;;;;;;18.40;5.00;;;;;;;33.49;36.24;101010.81;5089253;28;20054;-60
2022/08/10 05:15:18;;;;;;;25.67;5.13;;;;;;;33.49;36.27;101004.38;5095756;28;20024;-60
2022/08/10 05:17:45;;;;;;;15.98;4.55;;;;;;;33.53;35.72;101007.97;5075689;28;20033;-61
2022/08/10 05:20:12;;;;;;;24.10;9.63;;;;;;;33.47;35.62;101012.47;5085238;28;20048;-62
2022/08/10 05:22:44;;;;;;;19.50;7.13;;;;;;;33.69;34.14;101013.88;5081744;28;20111;-62
2022/08/10 05:25:16;;;;;;;21.83;7.45;;;;;;;33.85;34.59;101011.34;5092512;28;20119;-61
2022/08/10 05:27:43;;;;;;;19.23;5.28;;;;;;;34.04;34.21;101017.59;5090486;28;20367;-61
2022/08/10 05:30:13;;;;;;;15.80;5.15;;;;;;;33.89;34.05;101020.56;5078274;28;20107;-61
2022/08/10 05:32:40;;;;;;;13.32;5.53;;;;;;;33.77;34.13;101025.91;5082044;28;20094;-61
2022/08/10 05:35:07;;;;;;;16.30;4.93;;;;;;;33.54;34.66;101018.03;5086007;28;20065;-60
2022/08/10 05:37:35;;;;;;;23.25;5.00;;;;;;;33.44;35.21;101019.72;5075244;28;20115;-60
2022/08/10 05:40:04;;;;;;;14.80;4.72;;;;;;;33.29;35.83;101023.81;5087620;28;20021;-60
2022/08/10 05:42:31;;;;;;;15.40;4.60;;;;;;;33.25;37.83;101008.97;5086324;28;20115;-61
2022/08/10 05:44:58;;;;;;;13.98;4.03;;;;;;;33.19;38.93;101025.50;5092007;28;20529;-61
2022/08/10 05:47:25;;;;;;;16.33;3.60;;;;;;;33.14;39.49;101023.13;5075667;28;20035;-60
2022/08/10 05:49:52;;;;;;;13.68;3.42;;;;;;;32.99;40.36;101016.75;5097853;28;20020;-61
2022/08/10 05:52:19;;;;;;;15.45;3.42;;;;;;;32.93;39.94;101023.25;5092005;28;20478;-60
2022/08/10 05:54:47;;;;;;;8.18;2.75;;;;;;;32.95;39.81;101016.00;5091860;28;20106;-62
2022/08/10 05:57:16;;;;;;;13.15;3.30;;;;;;;32.87;40.54;101016.47;5092090;28;20040;-61
2022/08/10 05:59:59;;;;;;;31.27;4.72;;;;;;;32.76;41.21;101020.09;5080877;28;20052;-61
2022/08/10 06:02:35;;;;;;;14.70;3.42;;;;;;;32.68;41.58;101021.34;5094116;28;20035;-63
2022/08/10 06:05:05;;;;;;;19.40;4.03;;;;;;;32.52;42.04;101009.75;5092871;28;20042;-62
2022/08/10 06:07:34;;;;;;;16.80;3.75;;;;;;;32.57;42.40;101019.78;5093577;28;20048;-61
2022/08/10 06:10:01;;;;;;;18.05;4.35;;;;;;;32.49;41.67;101033.06;5095099;28;20036;-61
2022/08/10 06:12:30;;;;;;;98.18;8.30;;;;;;;32.44;42.67;101030.66;5094374;28;20028;-61
2022/08/10 06:15:00;;;;;;;23.27;3.58;;;;;;;32.52;43.61;101031.47;5095047;28;20036;-62
2022/08/10 06:17:29;;;;;;;14.23;3.55;;;;;;;32.47;43.19;101021.41;5095413;28;20371;-63
2022/08/10 06:20:00;;;;;;;9.43;3.15;;;;;;;32.49;43.92;101032.25;5093835;28;20034;-61
2022/08/10 06:22:31;;;;;;;14.70;3.58;;;;;;;32.40;43.22;101033.50;5090708;28;20527;-62
2022/08/10 06:25:00;;;;;;;14.25;3.30;;;;;;;32.62;42.14;101036.22;5093232;28;20035;-59
2022/08/10 06:27:27;;;;;;;8.55;2.70;;;;;;;32.82;41.76;101039.38;5094413;28;20031;-63
2022/08/10 06:29:56;;;;;;;17.85;11.32;;;;;;;32.76;41.69;101025.72;5090487;28;20032;-63
2022/08/10 06:32:26;;;;;;;11.93;4.10;;;;;;;32.82;42.72;101031.75;5094285;28;20031;-63
2022/08/10 06:34:57;;;;;;;10.65;2.72;;;;;;;32.76;43.06;101036.97;5091295;28;20044;-61
2022/08/10 06:37:27;;;;;;;10.00;3.42;;;;;;;32.75;42.71;101028.94;5094443;28;20051;-62
2022/08/10 06:39:54;;;;;;;17.10;10.25;;;;;;;32.65;43.22;101029.78;5091144;28;20041;-61
2022/08/10 06:42:45;;;;;;;14.52;4.45;;;;;;;32.60;43.18;101027.41;5094650;28;20028;-62
2022/08/10 06:45:19;;;;;;;12.10;3.90;;;;;;;32.57;42.80;101012.13;5095514;28;20043;-62
2022/08/10 06:47:54;;;;;;;13.65;5.20;;;;;;;32.59;42.14;101026.59;5078494;28;20035;-61
2022/08/10 06:50:34;;;;;;;11.55;4.68;;;;;;;32.52;42.81;101021.00;5087814;28;20036;-61
2022/08/10 06:53:02;;;;;;;16.98;10.02;;;;;;;32.39;43.01;101020.63;5087696;28;20097;-62
2022/08/10 06:55:32;;;;;;;12.95;4.30;;;;;;;32.34;42.58;101028.72;5095175;28;20031;-62
2022/08/10 06:58:01;;;;;;;15.55;3.50;;;;;;;32.30;42.36;101033.50;5090876;28;20107;-61
2022/08/10 07:00:32;;;;;;;7.43;2.65;;;;;;;32.22;42.50;101029.09;5093644;28;20455;-61
2022/08/10 07:03:05;;;;;;;11.90;3.13;;;;;;;32.09;43.42;101028.72;5092320;28;20034;-61
2022/08/10 07:05:36;;;;;;;16.75;2.97;;;;;;;32.06;42.98;101038.75;5094538;28;20044;-61
2022/08/10 07:08:04;;;;;;;7.72;2.75;;;;;;;32.02;42.50;101025.94;5079699;28;20111;-61
2022/08/10 07:10:32;;;;;;;6.07;1.95;;;;;;;32.06;42.03;101037.97;5085848;28;20081;-60
2022/08/10 07:13:01;;;;;;;4.53;2.13;;;;;;;31.99;41.79;101041.59;5087342;28;20043;-61
2022/08/10 07:15:29;;;;;;;7.72;2.00;;;;;;;31.97;42.40;101041.19;5077991;28;20036;-62
2022/08/10 07:17:57;;;;;;;6.10;2.22;;;;;;;31.97;41.55;101046.03;5078473;28;20500;-61
2022/08/10 07:20:25;;;;;;;5.50;2.20;;;;;;;31.92;41.96;101037.97;5094634;28;20016;-61
2022/08/10 07:22:55;;;;;;;11.07;2.60;;;;;;;31.93;42.10;101046.00;5089116;28;20427;-61
2022/08/10 07:25:24;;;;;;;8.38;1.90;;;;;;;31.86;41.85;101049.63;5094746;28;20505;-61
2022/08/10 07:27:59;;;;;;;10.95;2.30;;;;;;;31.73;42.51;101053.25;5091820;28;20035;-61
2022/08/10 07:30:35;;;;;;;7.63;1.98;;;;;;;31.70;41.22;101048.41;5083101;28;20020;-61
2022/08/10 07:33:47;;;;;;;7.15;2.10;;;;;;;31.67;40.49;101049.22;5076608;28;20082;-61
2022/08/10 07:36:21;;;;;;;7.43;2.00;;;;;;;31.54;41.01;101055.22;5076102;28;20059;-60
2022/08/10 07:38:50;;;;;;;5.90;2.00;;;;;;;31.44;40.81;101049.59;5091239;28;20059;-60
2022/08/10 07:41:21;;;;;;;13.68;3.80;;;;;;;31.51;40.73;101058.81;5080878;28;20107;-61
2022/08/10 07:43:50;;;;;;;3.42;1.88;;;;;;;31.49;40.61;101050.00;5083109;28;20111;-59
2022/08/10 07:46:20;;;;;;;4.93;1.90;;;;;;;31.43;40.71;101051.59;5087438;28;20028;-60
2022/08/10 07:48:53;;;;;;;6.80;2.20;;;;;;;31.29;40.68;101068.44;5090807;28;20544;-61
2022/08/10 07:51:22;;;;;;;8.43;2.20;;;;;;;31.25;41.06;101074.06;5081154;28;20465;-61
2022/08/10 07:53:52;;;;;;;7.07;2.30;;;;;;;31.18;41.43;101074.00;5082654;28;20493;-61
2022/08/10 07:56:24;;;;;;;6.28;2.30;;;;;;;31.15;41.39;101083.19;5089443;28;20043;-61
2022/08/10 07:59:07;;;;;;;4.80;2.63;;;;;;;31.19;40.26;101091.66;5077177;28;20067;-61
2022/08/10 08:01:37;;;;;;;8.38;3.90;;;;;;;31.11;41.39;101095.63;5083418;28;20048;-61
2022/08/10 08:04:05;;;;;;;12.25;3.40;;;;;;;30.97;41.81;101080.34;5086966;28;20039;-62
2022/08/10 08:06:33;;;;;;;12.65;2.78;;;;;;;31.03;41.73;101088.38;5093696;28;20031;-61
2022/08/10 08:09:02;;;;;;;10.52;3.25;;;;;;;31.01;42.05;101093.56;5089444;28;20082;-62
2022/08/10 08:11:30;;;;;;;24.63;8.57;;;;;;;31.15;42.53;101090.81;5081876;28;20040;-61
2022/08/10 08:13:59;;;;;;;42.20;9.98;;;;;;;31.13;43.96;101099.66;5081244;28;20063;-61
2022/08/10 08:16:26;;;;;;;37.40;7.90;;;;;;;31.16;44.64;101098.03;5089781;28;20466;-60
2022/08/10 08:18:55;;;;;;;63.92;9.05;;;;;;;31.14;44.31;101103.25;5076904;28;20032;-61
2022/08/10 08:21:22;;;;;;;18.15;7.28;;;;;;;31.02;44.21;101089.56;5085910;28;20518;-61
2022/08/10 08:23:51;;;;;;;17.88;5.90;;;;;;;31.16;44.27;101098.03;5084196;28;20429;-61
2022/08/10 08:26:21;;;;;;;13.18;4.53;;;;;;;31.25;43.55;101102.13;5077991;28;20016;-61
2022/08/10 08:28:49;;;;;;;14.27;4.50;;;;;;;31.20;44.27;101105.31;5090080;28;20028;-62
2022/08/10 08:31:18;;;;;;;13.13;4.40;;;;;;;31.17;43.87;101106.09;5079781;28;20066;-61
2022/08/10 08:33:46;;;;;;;14.88;4.00;;;;;;;31.27;43.30;101110.16;5087760;28;20028;-62
2022/08/10 08:36:17;;;;;;;8.80;3.30;;;;;;;31.35;42.50;101106.16;5093443;28;20115;-62
2022/08/10 08:38:46;;;;;;;17.48;3.35;;;;;;;31.35;42.31;101111.78;5090966;28;20429;-62
2022/08/10 08:41:27;;;;;;;13.73;3.10;;;;;;;31.63;40.93;101107.44;5078871;28;20024;-60
2022/08/10 08:44:30;;;;;;;12.43;3.20;;;;;;;31.63;40.83;101113.03;5080600;28;20044;-61
2022/08/10 08:47:26;;;;;;;12.23;3.03;;;;;;;31.50;41.47;101115.41;5074744;28;20044;-61
2022/08/10 08:49:58;;;;;;;8.18;2.85;;;;;;;31.57;41.26;101118.22;5093015;28;20028;-62
2022/08/10 08:52:36;;;;;;;7.15;2.80;;;;;;;31.61;40.72;101110.63;5076738;28;20048;-61
2022/08/10 08:55:09;;;;;;;7.13;2.75;;;;;;;31.61;40.50;101102.22;5077406;28;20123;-60
2022/08/10 08:58:37;;;;;;;8.88;2.67;;;;;;;31.54;40.52;101108.59;5092815;28;20098;-61
2022/08/10 09:01:28;;;;;;;9.90;2.95;;;;;;;31.65;39.99;101102.22;5050326;28;20070;-61
2022/08/10 09:04:40;;;;;;;9.82;2.95;;;;;;;31.71;40.08;101100.59;5092324;28;20044;-61
2022/08/10 09:07:12;;;;;;;11.13;2.65;;;;;;;31.72;39.53;101113.44;5074907;28;20040;-61
2022/08/10 09:09:50;;;;;;;12.85;2.95;;;;;;;31.63;39.71;101102.59;5092752;28;20085;-61
2022/08/10 09:12:37;;;;;;;11.20;3.00;;;;;;;31.58;39.55;101105.78;5077508;28;20123;-60
2022/08/10 09:15:34;;;;;;;9.02;3.00;;;;;;;31.57;39.79;101104.19;5077433;28;20114;-60
2022/08/10 09:18:04;;;;;;;8.10;2.92;;;;;;;31.56;40.34;101106.19;5092715;28;20032;-60
2022/08/10 09:20:46;;;;;;;7.28;2.78;;;;;;;31.50;41.74;101105.00;5075728;28;20066;-61
2022/08/10 09:23:46;;;;;;;8.32;2.80;;;;;;;31.46;41.29;101104.19;5086297;28;20042;-60
2022/08/10 09:26:21;;;;;;;13.48;2.97;;;;;;;31.43;41.87;101107.00;5086831;28;20067;-61
2022/08/10 09:28:53;;;;;;;10.07;3.28;;;;;;;31.37;42.95;101095.31;5075589;28;20043;-60
2022/08/10 09:31:23;;;;;;;8.40;2.97;;;;;;;31.37;44.13;101108.56;5084950;28;20491;-61
2022/08/10 09:34:04;;;;;;;8.00;2.72;;;;;;;31.53;46.43;101107.00;5082657;28;20056;-60
2022/08/10 09:37:23;;;;;;;9.73;2.97;;;;;;;31.47;47.02;101108.59;5092385;28;20443;-61
2022/08/10 09:40:05;;;;;;;8.77;3.13;;;;;;;31.41;48.27;101109.38;5038879;28;20139;-61
2022/08/10 09:42:47;;;;;;;7.97;2.90;;;;;;;31.38;49.11;101119.41;5091416;28;20024;-63
2022/08/10 09:45:34;;;;;;;9.75;3.20;;;;;;;31.46;48.03;101101.38;5078299;28;20069;-60
2022/08/10 09:48:01;;;;;;;6.35;2.80;;;;;;;31.36;47.99;101113.38;5079358;28;20028;-59
2022/08/10 09:50:44;;;;;;;10.43;3.53;;;;;;;31.32;48.60;101100.53;5088688;28;20028;-59
2022/08/10 09:53:19;;;;;;;7.90;3.40;;;;;;;31.50;48.91;101096.56;5077921;28;20058;-60
2022/08/10 09:56:08;;;;;;;6.10;3.03;;;;;;;31.35;49.39;101100.53;5091965;28;20036;-59
2022/08/10 09:59:00;;;;;;;7.07;3.13;;;;;;;31.31;49.74;101104.53;5075499;28;20482;-61
2022/08/10 10:01:42;;;;;;;9.25;3.20;;;;;;;31.24;50.48;101108.94;5083732;28;20414;-61
2022/08/10 10:04:49;;;;;;;11.77;3.25;;;;;;;31.14;50.35;101106.06;5085561;28;20044;-62
2022/08/10 10:07:26;;;;;;;7.85;3.75;;;;;;;31.05;50.97;101100.00;5077407;28;20064;-61
2022/08/10 10:10:12;;;;;;;8.65;4.38;;;;;;;30.97;50.27;101102.78;5092103;28;20039;-60
2022/08/10 10:12:52;;;;;;;14.20;6.60;;;;;;;30.89;50.77;101095.56;5075311;28;20886;-61
2022/08/10 10:15:33;;;;;;;11.65;5.80;;;;;;;30.88;50.32;101098.72;5084753;28;20037;-59
2022/08/10 10:18:26;;;;;;;32.45;6.20;;;;;;;30.75;50.32;101097.50;5084867;28;20036;-58
2022/08/10 10:21:09;;;;;;;15.57;8.75;;;;;;;30.75;50.82;101106.72;5075154;28;20486;-59
2022/08/10 10:23:54;;;;;;;11.35;5.63;;;;;;;30.81;50.75;101104.31;5082497;28;20071;-59
2022/08/10 10:26:52;;;;;;;15.45;7.95;;;;;;;30.73;50.56;101103.50;5087485;28;20501;-61
2022/08/10 10:29:22;;;;;;;12.80;8.55;;;;;;;30.67;50.40;101088.22;5078708;28;20032;-61
2022/08/10 10:32:23;;;;;;;11.77;4.32;;;;;;;30.59;50.40;101095.78;5091772;28;20063;-60
2022/08/10 10:35:13;;;;;;;14.60;3.50;;;;;;;30.52;50.19;101094.91;5084387;28;20190;-60
2022/08/10 10:37:41;;;;;;;8.15;3.50;;;;;;;30.49;50.32;101090.09;5092085;28;20067;-60
2022/08/10 10:40:10;;;;;;;12.27;3.60;;;;;;;30.52;50.46;101103.31;5077777;28;20033;-60
2022/08/10 10:42:59;;;;;;;17.23;4.03;;;;;;;30.46;51.25;101100.09;5088187;28;20044;-60
2022/08/10 10:45:51;;;;;;;9.18;3.75;;;;;;;30.34;51.32;101095.63;5080174;28;20532;-60
2022/08/10 10:48:32;;;;;;;12.70;3.83;;;;;;;30.31;51.95;101099.19;5080108;28;20036;-60
2022/08/10 10:51:24;;;;;;;19.85;3.95;;;;;;;30.20;51.77;101115.16;5079672;28;20059;-60
2022/08/10 10:54:12;;;;;;;10.07;3.95;;;;;;;30.17;51.90;101109.53;5095246;28;20036;-59
2022/08/10 10:56:57;;;;;;;14.98;6.35;;;;;;;30.20;52.16;101108.75;5078479;28;20036;-60
2022/08/10 10:59:48;;;;;;;14.93;7.72;;;;;;;30.30;51.03;101103.19;5087457;28;20037;-60
2022/08/10 11:02:31;;;;;;;10.93;5.20;;;;;;;30.28;51.95;101102.78;5089834;28;20040;-60
2022/08/10 11:05:31;;;;;;;8.43;4.18;;;;;;;30.21;52.61;101102.75;5090314;28;20036;-59
2022/08/10 11:08:27;;;;;;;9.73;3.80;;;;;;;30.21;53.63;101101.94;5095224;28;20544;-60
2022/08/10 11:11:15;;;;;;;11.98;4.07;;;;;;;30.09;54.15;101091.84;5089539;28;20532;-60
2022/08/10 11:13:45;;;;;;;13.20;5.03;;;;;;;30.03;54.61;101094.16;5084472;28;20491;-60
2022/08/10 11:16:30;;;;;;;8.68;5.32;;;;;;;30.04;54.99;101095.00;5089116;28;20032;-60
2022/08/10 11:19:15;;;;;;;12.57;6.72;;;;;;;29.97;54.53;101092.91;5078673;28;20111;-61
2022/08/10 11:21:50;;;;;;;;;;;;;;;30.02;54.59;101091.75;5095206;28;20043;-59
2022/08/10 11:24:37;;;;;;;18.48;4.80;;;;;;;29.95;55.04;101094.47;5079529;28;19998;-60
2022/08/10 11:27:15;;;;;;;10.30;4.50;;;;;;;29.97;55.85;101083.69;5079366;28;20070;-61
2022/08/10 11:30:02;;;;;;;10.30;4.10;;;;;;;29.91;56.70;101096.47;5094503;28;20046;-60
2022/08/10 11:32:32;;;;;;;9.27;3.60;;;;;;;29.83;57.45;101106.81;5077897;28;20040;-61
2022/08/10 11:35:10;;;;;;;7.75;3.20;;;;;;;29.78;57.89;101109.94;5094506;28;20493;-58
2022/08/10 11:38:15;;;;;;;7.25;3.25;;;;;;;29.76;58.54;101112.34;5094586;28;20044;-62
2022/08/10 11:40:48;;;;;;;7.25;3.70;;;;;;;29.85;57.83;101115.63;5048310;28;20037;-60
2022/08/10 11:43:22;;;;;;;7.28;2.90;;;;;;;29.99;56.85;101120.56;5077983;28;20036;-59
2022/08/10 11:45:54;;;;;;;9.00;3.15;;;;;;;29.85;58.36;101121.25;5085273;28;20036;-61
2022/08/10 11:48:38;;;;;;;10.98;3.15;;;;;;;29.83;58.41;101129.22;5078593;28;20574;-60
2022/08/10 11:51:09;;;;;;;;;;;;;;;29.74;58.56;101132.34;5079837;28;20506;-61
2022/08/10 11:53:56;;;;;;;14.00;4.50;;;;;;;29.69;59.40;101127.09;5094054;28;19966;-60